createdAt,value
2023-01-24T00:00:58.268Z,8.00
2023-01-24T00:03:24.955Z,7.43
2023-01-24T00:05:51.697Z,6.60
2023-01-24T00:08:26.084Z,6.95
2023-01-24T00:11:00.731Z,7.88
2023-01-24T00:13:27.769Z,7.53
2023-01-24T00:16:06.850Z,7.80
2023-01-24T00:18:34.065Z,7.32
2023-01-24T00:21:06.430Z,7.88
2023-01-24T00:23:33.176Z,8.18
2023-01-24T00:25:59.887Z,7.72
2023-01-24T00:28:26.550Z,7.75
2023-01-24T00:30:53.333Z,7.30
2023-01-24T00:33:22.790Z,7.65
2023-01-24T00:35:52.042Z,7.00
2023-01-24T00:38:19.616Z,8.07
2023-01-24T00:40:46.559Z,7.28
2023-01-24T00:43:13.578Z,6.72
2023-01-24T00:45:42.078Z,8.18
2023-01-24T00:48:10.716Z,7.20
2023-01-24T00:50:37.618Z,8.18
2023-01-24T00:53:05.193Z,8.32
2023-01-24T00:55:32.052Z,7.93
2023-01-24T00:58:01.344Z,7.22
2023-01-24T01:00:28.137Z,7.72
2023-01-24T01:02:54.829Z,8.50
2023-01-24T01:05:21.788Z,7.80
2023-01-24T01:07:48.629Z,6.93
2023-01-24T01:10:15.460Z,8.30
2023-01-24T01:12:42.084Z,8.15
2023-01-24T01:15:09.346Z,8.30
2023-01-24T01:17:35.988Z,9.10
2023-01-24T01:20:04.226Z,9.45
2023-01-24T01:22:30.930Z,8.13
2023-01-24T01:24:58.716Z,7.45
2023-01-24T01:27:25.459Z,8.95
2023-01-24T01:29:52.122Z,9.48
2023-01-24T01:32:18.884Z,7.95
2023-01-24T01:34:45.737Z,7.97
2023-01-24T01:37:12.372Z,9.00
2023-01-24T01:39:39.246Z,8.48
2023-01-24T01:42:05.964Z,7.53
2023-01-24T01:44:42.527Z,8.00
2023-01-24T01:47:21.266Z,7.22
2023-01-24T01:50:00.768Z,8.35
2023-01-24T01:52:29.145Z,8.52
2023-01-24T01:55:00.982Z,8.23
2023-01-24T01:57:31.564Z,8.35
2023-01-24T02:00:02.108Z,7.22
2023-01-24T02:02:30.141Z,9.40
2023-01-24T02:05:03.208Z,8.20
2023-01-24T02:07:33.320Z,8.35
2023-01-24T02:10:00.577Z,9.23
2023-01-24T02:12:34.835Z,7.55
2023-01-24T02:15:26.956Z,9.00
2023-01-24T02:17:53.988Z,7.68
2023-01-24T02:20:33.643Z,9.50
2023-01-24T02:23:15.441Z,8.43
2023-01-24T02:26:11.428Z,8.30
2023-01-24T02:28:40.190Z,9.30
2023-01-24T02:31:06.957Z,8.40
2023-01-24T02:33:35.028Z,8.10
2023-01-24T02:36:16.530Z,8.48
2023-01-24T02:38:47.208Z,9.23
2023-01-24T02:41:15.485Z,9.13
2023-01-24T02:43:47.269Z,9.02
2023-01-24T02:46:13.998Z,9.15
2023-01-24T02:48:40.751Z,9.25
2023-01-24T02:51:26.001Z,9.05
2023-01-24T02:53:52.810Z,10.30
2023-01-24T02:56:38.316Z,8.52
2023-01-24T02:59:06.603Z,9.02
2023-01-24T03:01:33.400Z,9.77
2023-01-24T03:04:00.205Z,8.00
2023-01-24T03:06:26.871Z,7.93
2023-01-24T03:08:53.577Z,9.10
2023-01-24T03:11:20.222Z,10.30
2023-01-24T03:14:05.454Z,9.18
2023-01-24T03:16:50.796Z,8.35
2023-01-24T03:19:35.999Z,9.38
2023-01-24T03:22:21.005Z,8.07
2023-01-24T03:25:06.328Z,8.07
2023-01-24T03:27:51.721Z,8.13
2023-01-24T03:30:36.805Z,10.05
2023-01-24T03:33:22.591Z,11.40
2023-01-24T03:35:54.894Z,9.13
2023-01-24T03:38:41.986Z,9.75
2023-01-24T03:41:08.812Z,10.27
2023-01-24T03:43:35.582Z,9.57
2023-01-24T03:46:02.324Z,8.57
2023-01-24T03:48:35.562Z,10.10
2023-01-24T03:51:21.004Z,9.32
2023-01-24T03:53:47.708Z,8.32
2023-01-24T03:56:14.389Z,8.40
2023-01-24T03:58:41.193Z,8.10
2023-01-24T04:01:07.995Z,9.13
2023-01-24T04:03:34.672Z,8.52
2023-01-24T04:06:01.424Z,8.75
2023-01-24T04:08:28.296Z,8.98
2023-01-24T04:10:57.581Z,8.63
2023-01-24T04:13:25.016Z,8.43
2023-01-24T04:15:51.760Z,8.65
2023-01-24T04:18:18.512Z,9.30
2023-01-24T04:20:45.208Z,7.32
2023-01-24T04:23:12.811Z,8.65
2023-01-24T04:25:39.583Z,9.10
2023-01-24T04:28:06.567Z,9.35
2023-01-24T04:30:33.505Z,10.35
2023-01-24T04:33:00.262Z,9.48
2023-01-24T04:35:29.284Z,8.65
2023-01-24T04:38:00.817Z,9.82
2023-01-24T04:40:27.509Z,8.80
2023-01-24T04:42:56.552Z,9.55
2023-01-24T04:45:23.646Z,9.88
2023-01-24T04:47:50.523Z,10.25
2023-01-24T04:50:17.304Z,10.25
2023-01-24T04:52:44.062Z,9.65
2023-01-24T04:55:10.820Z,8.50
2023-01-24T04:57:37.520Z,7.97
2023-01-24T05:00:05.447Z,8.50
2023-01-24T05:02:33.784Z,10.70
2023-01-24T05:05:00.584Z,10.48
2023-01-24T05:07:27.249Z,10.75
2023-01-24T05:09:53.902Z,10.48
2023-01-24T05:12:20.673Z,10.48
2023-01-24T05:14:47.402Z,10.90
2023-01-24T05:17:14.064Z,9.65
2023-01-24T05:19:40.779Z,10.40
2023-01-24T05:22:07.532Z,9.90
2023-01-24T05:24:34.237Z,10.40
2023-01-24T05:27:00.936Z,9.60
2023-01-24T05:29:27.651Z,10.50
2023-01-24T05:31:54.285Z,10.57
2023-01-24T05:34:21.026Z,10.23
2023-01-24T05:36:48.930Z,11.55
2023-01-24T05:39:16.312Z,12.20
2023-01-24T05:41:43.083Z,10.38
2023-01-24T05:44:10.057Z,10.10
2023-01-24T05:46:36.807Z,11.85
2023-01-24T05:49:03.523Z,11.68
2023-01-24T05:51:30.189Z,9.30
2023-01-24T05:53:56.829Z,10.25
2023-01-24T05:56:23.510Z,11.55
2023-01-24T05:58:50.180Z,11.95
2023-01-24T06:01:23.897Z,10.18
2023-01-24T06:03:52.757Z,9.90
2023-01-24T06:06:21.502Z,10.48
2023-01-24T06:08:48.565Z,10.68
2023-01-24T06:11:18.915Z,9.95
2023-01-24T06:13:46.209Z,10.45
2023-01-24T06:16:22.379Z,8.73
2023-01-24T06:18:50.106Z,9.23
2023-01-24T06:21:34.884Z,11.05
2023-01-24T06:24:02.637Z,10.27
2023-01-24T06:26:30.961Z,10.52
2023-01-24T06:28:58.106Z,10.23
2023-01-24T06:31:39.587Z,15.10
2023-01-24T06:34:21.579Z,10.20
2023-01-24T06:39:27.367Z,8.93
2023-01-24T06:41:54.288Z,10.93
2023-01-24T06:44:21.325Z,11.38
2023-01-24T06:46:48.017Z,10.00
2023-01-24T06:49:15.392Z,9.18
2023-01-24T06:51:42.055Z,10.02
2023-01-24T06:54:09.304Z,10.10
2023-01-24T06:56:36.025Z,11.00
2023-01-24T06:59:02.746Z,11.10
2023-01-24T07:01:29.848Z,10.63
2023-01-24T07:03:56.530Z,9.95
2023-01-24T07:06:24.266Z,9.88
2023-01-24T07:08:51.093Z,9.02
2023-01-24T07:11:17.795Z,9.48
2023-01-24T07:13:44.426Z,7.95
2023-01-24T07:16:11.223Z,9.27
2023-01-24T07:18:40.493Z,8.95
2023-01-24T07:21:08.894Z,8.38
2023-01-24T07:23:36.320Z,8.63
2023-01-24T07:26:04.457Z,9.48
2023-01-24T07:28:31.197Z,9.68
2023-01-24T07:30:57.944Z,8.38
2023-01-24T07:33:24.706Z,11.10
2023-01-24T07:35:51.357Z,8.85
2023-01-24T07:38:18.041Z,9.77
2023-01-24T07:40:44.759Z,9.55
2023-01-24T07:43:11.761Z,8.05
2023-01-24T07:45:39.474Z,9.43
2023-01-24T07:48:09.018Z,8.60
2023-01-24T07:50:36.126Z,9.20
2023-01-24T07:53:03.326Z,9.15
2023-01-24T07:55:30.126Z,8.82
2023-01-24T07:58:03.988Z,8.00
2023-01-24T08:00:30.985Z,9.10
2023-01-24T08:02:59.132Z,8.18
2023-01-24T08:05:25.895Z,7.50
2023-01-24T08:07:57.209Z,9.18
2023-01-24T08:10:24.635Z,7.47
2023-01-24T08:12:51.984Z,8.65
2023-01-24T08:15:19.979Z,8.57
2023-01-24T08:17:46.713Z,8.82
2023-01-24T08:20:14.030Z,9.38
2023-01-24T08:22:56.159Z,8.23
2023-01-24T08:25:26.086Z,8.35
2023-01-24T08:27:54.837Z,9.38
2023-01-24T08:30:22.193Z,10.13
2023-01-24T08:32:48.980Z,10.70
2023-01-24T08:35:15.723Z,10.63
2023-01-24T08:37:42.466Z,9.88
2023-01-24T08:40:09.686Z,9.90
2023-01-24T08:42:37.038Z,9.63
2023-01-24T08:45:04.013Z,8.32
2023-01-24T08:47:30.681Z,8.75
2023-01-24T08:49:58.417Z,8.80
2023-01-24T08:52:25.140Z,8.10
2023-01-24T08:54:51.800Z,9.88
2023-01-24T08:57:18.446Z,9.25
2023-01-24T08:59:45.281Z,8.70
2023-01-24T09:02:17.322Z,8.13
2023-01-24T09:04:44.272Z,9.00
2023-01-24T09:07:14.403Z,9.70
2023-01-24T09:09:41.079Z,8.18
2023-01-24T09:12:07.822Z,8.07
2023-01-24T09:14:34.489Z,8.57
2023-01-24T09:17:02.201Z,8.77
2023-01-24T09:19:29.016Z,8.75
2023-01-24T09:21:57.861Z,8.98
2023-01-24T09:24:25.736Z,9.65
2023-01-24T09:26:52.510Z,7.75
2023-01-24T09:29:19.168Z,8.25
2023-01-24T09:31:48.239Z,8.75
2023-01-24T09:34:15.102Z,7.80
2023-01-24T09:36:41.985Z,9.18
2023-01-24T09:39:08.637Z,8.88
2023-01-24T09:41:44.076Z,8.95
2023-01-24T09:44:23.845Z,8.95
2023-01-24T09:46:52.332Z,8.23
2023-01-24T09:49:18.908Z,12.65
2023-01-24T09:51:52.009Z,8.00
2023-01-24T09:54:26.833Z,8.80
2023-01-24T09:56:56.112Z,8.02
2023-01-24T09:59:33.689Z,6.80
2023-01-24T10:02:00.591Z,8.40
2023-01-24T10:04:36.685Z,8.00
2023-01-24T10:07:24.717Z,8.35
2023-01-24T10:12:55.220Z,7.78
2023-01-24T10:15:42.936Z,7.97
2023-01-24T10:18:30.900Z,7.65
2023-01-24T10:21:28.168Z,8.95
2023-01-24T10:24:02.925Z,10.25
2023-01-24T10:26:41.736Z,8.80
2023-01-24T10:29:20.093Z,8.23
2023-01-24T10:32:00.571Z,9.32
2023-01-24T10:34:30.152Z,10.30
2023-01-24T10:37:01.465Z,9.85
2023-01-24T10:39:28.469Z,7.65
2023-01-24T10:41:56.488Z,8.15
2023-01-24T10:44:28.947Z,7.25
2023-01-24T10:47:12.053Z,7.00
2023-01-24T10:49:43.046Z,6.82
2023-01-24T10:52:23.091Z,6.55
2023-01-24T10:54:55.244Z,7.70
2023-01-24T10:57:45.428Z,8.13
2023-01-24T11:00:34.550Z,6.57
2023-01-24T11:03:05.082Z,6.53
2023-01-24T11:05:47.257Z,6.57
2023-01-24T11:08:19.502Z,7.60
2023-01-24T11:10:46.353Z,7.15
2023-01-24T11:13:28.651Z,6.85
2023-01-24T11:16:08.955Z,8.48
2023-01-24T11:18:36.272Z,7.55
2023-01-24T11:21:17.274Z,8.13
2023-01-24T11:23:44.877Z,7.72
2023-01-24T11:26:29.858Z,18.40
2023-01-24T11:29:07.284Z,12.90
2023-01-24T11:31:38.090Z,9.27
2023-01-24T11:34:13.588Z,8.57
2023-01-24T11:37:08.596Z,8.02
2023-01-24T11:39:54.244Z,9.75
2023-01-24T11:42:37.849Z,9.65
2023-01-24T11:45:44.950Z,7.88
2023-01-24T11:48:21.525Z,7.53
2023-01-24T11:51:13.117Z,8.77
2023-01-24T11:53:54.132Z,8.13
2023-01-24T11:56:24.546Z,8.02
2023-01-24T11:59:15.827Z,9.07
2023-01-24T12:02:01.029Z,10.18
2023-01-24T12:04:45.803Z,14.00
2023-01-24T12:07:19.357Z,11.35
2023-01-24T12:09:50.103Z,11.77
2023-01-24T12:12:55.437Z,11.57
2023-01-24T12:15:25.811Z,10.43
2023-01-24T12:18:12.074Z,9.95
2023-01-24T12:20:58.612Z,10.13
2023-01-24T12:23:28.600Z,8.82
2023-01-24T12:25:59.452Z,8.38
2023-01-24T12:29:09.314Z,8.55
2023-01-24T12:32:14.738Z,8.48
2023-01-24T12:34:59.806Z,10.15
2023-01-24T12:37:29.138Z,8.80
2023-01-24T12:40:07.147Z,9.65
2023-01-24T12:42:40.799Z,8.45
2023-01-24T12:45:16.088Z,9.48
2023-01-24T12:47:49.000Z,10.50
2023-01-24T12:50:18.698Z,9.57
2023-01-24T12:52:51.313Z,10.10
2023-01-24T12:55:27.525Z,10.00
2023-01-24T12:58:15.263Z,9.15
2023-01-24T13:01:19.627Z,8.85
2023-01-24T13:04:27.950Z,9.50
2023-01-24T13:07:25.903Z,8.85
2023-01-24T13:10:19.675Z,8.30
2023-01-24T13:12:47.038Z,10.35
2023-01-24T13:15:47.981Z,10.52
2023-01-24T13:18:20.833Z,13.52
2023-01-24T13:20:49.917Z,10.45
2023-01-24T13:23:41.685Z,10.27
2023-01-24T13:26:12.900Z,10.05
2023-01-24T13:28:51.786Z,8.85
2023-01-24T13:31:53.857Z,9.10
2023-01-24T13:34:23.421Z,10.32
2023-01-24T13:36:51.445Z,8.77
2023-01-24T13:39:42.260Z,9.80
2023-01-24T13:42:31.205Z,12.73
2023-01-24T13:44:57.936Z,12.35
2023-01-24T13:47:26.881Z,10.32
2023-01-24T13:49:56.387Z,9.55
2023-01-24T13:54:59.494Z,10.75
2023-01-24T13:57:30.860Z,9.32
2023-01-24T14:00:22.124Z,12.30
2023-01-24T14:02:48.950Z,10.48
2023-01-24T14:05:47.392Z,10.35
2023-01-24T14:08:26.330Z,13.10
2023-01-24T14:11:11.555Z,11.68
2023-01-24T14:13:45.130Z,9.85
2023-01-24T14:16:25.343Z,10.88
2023-01-24T14:18:54.925Z,11.25
2023-01-24T14:23:51.707Z,12.13
2023-01-24T14:26:20.639Z,12.63
2023-01-24T14:28:51.217Z,11.32
2023-01-24T14:31:24.808Z,9.93
2023-01-24T14:33:58.572Z,10.73
2023-01-24T14:36:32.367Z,10.98
2023-01-24T14:39:27.191Z,11.48
2023-01-24T14:42:04.280Z,9.77
2023-01-24T14:44:40.466Z,9.77
2023-01-24T14:47:21.922Z,12.85
2023-01-24T14:49:50.942Z,10.90
2023-01-24T14:52:23.256Z,9.70
2023-01-24T14:54:53.008Z,10.73
2023-01-24T14:57:21.403Z,11.25
2023-01-24T15:00:08.269Z,10.35
2023-01-24T15:02:35.876Z,9.35
2023-01-24T15:05:02.821Z,10.13
2023-01-24T15:07:29.531Z,10.25
2023-01-24T15:09:56.204Z,8.70
2023-01-24T15:12:31.742Z,9.52
2023-01-24T15:15:01.244Z,12.95
2023-01-24T15:20:10.165Z,9.75
2023-01-24T15:22:39.293Z,9.43
2023-01-24T15:25:21.980Z,9.05
2023-01-24T15:27:49.460Z,9.98
2023-01-24T15:30:22.574Z,10.35
2023-01-24T15:33:13.204Z,9.00
2023-01-24T15:35:48.838Z,9.98
2023-01-24T15:41:08.668Z,11.18
2023-01-24T15:43:47.951Z,9.48
2023-01-24T15:46:52.103Z,9.63
2023-01-24T15:49:33.260Z,7.88
2023-01-24T15:52:13.216Z,10.73
2023-01-24T15:54:42.073Z,9.85
2023-01-24T15:57:38.853Z,8.90
2023-01-24T16:00:09.185Z,10.48
2023-01-24T16:02:35.981Z,9.02
2023-01-24T16:05:03.234Z,7.50
2023-01-24T16:07:30.353Z,8.15
2023-01-24T16:09:57.243Z,9.43
2023-01-24T16:12:24.590Z,9.93
2023-01-24T16:15:07.607Z,12.10
2023-01-24T16:17:35.944Z,10.77
2023-01-24T16:20:03.800Z,9.85
2023-01-24T16:22:32.622Z,8.50
2023-01-24T16:24:59.277Z,10.93
2023-01-24T16:27:28.084Z,8.43
2023-01-24T16:29:54.738Z,13.35
2023-01-24T16:32:24.034Z,15.43
2023-01-24T16:34:51.719Z,10.27
2023-01-24T16:37:21.940Z,7.80
2023-01-24T16:39:49.509Z,8.73
2023-01-24T16:42:18.139Z,8.05
2023-01-24T16:44:55.156Z,10.10
2023-01-24T16:47:21.835Z,7.28
2023-01-24T16:49:53.053Z,7.55
2023-01-24T16:52:19.903Z,8.85
2023-01-24T16:54:46.616Z,9.43
2023-01-24T16:57:13.281Z,8.07
2023-01-24T16:59:39.973Z,8.25
2023-01-24T17:02:06.742Z,8.18
2023-01-24T17:04:33.716Z,10.20
2023-01-24T17:07:06.240Z,9.05
2023-01-24T17:09:34.519Z,8.98
2023-01-24T17:12:13.674Z,7.53
2023-01-24T17:14:41.744Z,6.93
2023-01-24T17:17:09.276Z,6.25
2023-01-24T17:19:38.761Z,20.65
2023-01-24T17:24:33.125Z,13.48
2023-01-24T17:26:59.836Z,10.02
2023-01-24T17:29:28.810Z,9.27
2023-01-24T17:31:57.061Z,7.63
2023-01-24T17:34:24.058Z,7.20
2023-01-24T17:36:51.243Z,7.88
2023-01-24T17:39:18.010Z,7.03
2023-01-24T17:41:47.318Z,7.30
2023-01-24T17:44:13.969Z,8.75
2023-01-24T17:46:40.683Z,7.53
2023-01-24T17:49:07.409Z,6.88
2023-01-24T17:51:37.240Z,6.93
2023-01-24T17:54:05.176Z,6.70
2023-01-24T17:56:35.209Z,6.45
2023-01-24T17:59:02.755Z,6.65
2023-01-24T18:01:29.786Z,6.30
2023-01-24T18:03:56.633Z,7.05
2023-01-24T18:06:23.479Z,13.90
2023-01-24T18:08:50.230Z,7.40
2023-01-24T18:11:19.492Z,6.80
2023-01-24T18:13:46.627Z,6.40
2023-01-24T18:16:19.317Z,8.02
2023-01-24T18:18:46.759Z,7.18
2023-01-24T18:21:19.940Z,6.47
2023-01-24T18:23:52.422Z,7.10
2023-01-24T18:26:19.181Z,8.52
2023-01-24T18:28:46.292Z,7.82
2023-01-24T18:31:14.078Z,7.18
2023-01-24T18:33:41.183Z,6.82
2023-01-24T18:36:19.011Z,7.05
2023-01-24T18:38:46.680Z,6.40
2023-01-24T18:41:16.764Z,6.38
2023-01-24T18:43:43.592Z,6.70
2023-01-24T18:46:12.089Z,8.02
2023-01-24T18:48:41.968Z,6.95
2023-01-24T18:51:12.340Z,7.07
2023-01-24T18:53:40.449Z,6.40
2023-01-24T18:56:08.959Z,6.30
2023-01-24T18:58:37.499Z,6.75
2023-01-24T19:01:22.778Z,6.63
2023-01-24T19:03:50.096Z,5.53
2023-01-24T19:06:23.533Z,7.15
2023-01-24T19:09:04.315Z,6.32
2023-01-24T19:11:33.626Z,6.10
2023-01-24T19:14:03.841Z,6.32
2023-01-24T19:16:34.111Z,6.70
2023-01-24T19:19:02.192Z,5.38
2023-01-24T19:21:32.160Z,6.60
2023-01-24T19:23:59.924Z,6.20
2023-01-24T19:26:27.331Z,5.38
2023-01-24T19:28:58.594Z,5.15
2023-01-24T19:31:28.611Z,5.72
2023-01-24T19:33:56.715Z,5.47
2023-01-24T19:36:24.199Z,6.35
2023-01-24T19:38:55.864Z,5.90
2023-01-24T19:41:27.912Z,5.35
2023-01-24T19:44:18.505Z,4.72
2023-01-24T19:46:43.081Z,4.60
2023-01-24T19:49:11.947Z,4.05
2023-01-24T19:51:38.677Z,5.13
2023-01-24T19:54:05.410Z,5.00
2023-01-24T19:56:35.058Z,5.53
2023-01-24T19:59:03.476Z,3.72
2023-01-24T20:01:30.352Z,4.85
2023-01-24T20:04:06.370Z,4.43
2023-01-24T20:06:41.839Z,5.97
2023-01-24T20:09:08.508Z,4.68
2023-01-24T20:11:35.391Z,4.55
2023-01-24T20:14:02.119Z,5.22
2023-01-24T20:16:31.167Z,4.97
2023-01-24T20:19:00.772Z,5.63
2023-01-24T20:23:58.405Z,4.80
2023-01-24T20:26:26.126Z,5.95
2023-01-24T20:28:52.924Z,4.72
2023-01-24T20:31:20.100Z,5.20
2023-01-24T20:33:49.049Z,4.70
2023-01-24T20:36:17.682Z,5.03
2023-01-24T20:38:47.093Z,5.22
2023-01-24T20:41:16.189Z,5.70
2023-01-24T20:43:43.864Z,5.03
2023-01-24T20:46:22.866Z,5.75
2023-01-24T20:48:51.785Z,5.65
2023-01-24T20:51:19.584Z,4.80
2023-01-24T20:53:47.821Z,4.78
2023-01-24T20:56:18.422Z,5.15
2023-01-24T20:58:45.101Z,5.70
2023-01-24T21:01:16.125Z,4.78
2023-01-24T21:03:43.974Z,5.47
2023-01-24T21:06:14.252Z,5.22
2023-01-24T21:08:42.184Z,5.35
2023-01-24T21:11:15.957Z,4.28
2023-01-24T21:13:42.741Z,6.45
2023-01-24T21:16:12.439Z,5.45
2023-01-24T21:18:40.952Z,5.15
2023-01-24T21:21:08.490Z,4.80
2023-01-24T21:23:36.532Z,4.40
2023-01-24T21:26:07.844Z,4.85
2023-01-24T21:28:35.499Z,5.18
2023-01-24T21:31:06.713Z,5.13
2023-01-24T21:33:33.828Z,5.38
2023-01-24T21:36:05.102Z,4.40
2023-01-24T21:38:34.043Z,4.78
2023-01-24T21:41:21.152Z,6.18
2023-01-24T21:43:47.925Z,4.25
2023-01-24T21:46:15.425Z,5.45
2023-01-24T21:49:01.835Z,4.43
2023-01-24T21:51:29.600Z,5.13
2023-01-24T21:54:02.921Z,4.55
2023-01-24T21:56:49.547Z,4.35
2023-01-24T21:59:16.399Z,4.53
2023-01-24T22:01:44.965Z,4.93
2023-01-24T22:04:11.722Z,5.25
2023-01-24T22:06:38.447Z,6.65
2023-01-24T22:09:05.196Z,6.32
2023-01-24T22:11:32.976Z,5.80
2023-01-24T22:14:00.075Z,5.40
2023-01-24T22:16:27.453Z,4.53
2023-01-24T22:18:54.406Z,6.97
2023-01-24T22:21:28.590Z,5.00
2023-01-24T22:24:15.093Z,14.18
2023-01-24T22:26:50.097Z,7.13
2023-01-24T22:29:17.073Z,5.32
2023-01-24T22:31:44.175Z,4.60
2023-01-24T22:34:20.361Z,4.38
2023-01-24T22:37:12.053Z,3.05
2023-01-24T22:39:38.770Z,3.08
2023-01-24T22:42:05.442Z,2.95
2023-01-24T22:44:32.114Z,2.97
2023-01-24T22:46:58.814Z,3.05
2023-01-24T22:49:25.561Z,3.20
2023-01-24T22:51:53.780Z,3.08
2023-01-24T22:54:20.428Z,3.67
2023-01-24T22:56:47.083Z,2.83
2023-01-24T22:59:13.775Z,2.63
2023-01-24T23:01:40.411Z,2.53
2023-01-24T23:04:07.981Z,2.65
2023-01-24T23:06:35.260Z,2.42
2023-01-24T23:09:02.299Z,2.58
2023-01-24T23:11:29.282Z,3.00
2023-01-24T23:14:15.046Z,2.83
2023-01-24T23:16:56.096Z,3.47
2023-01-24T23:19:44.443Z,3.88
2023-01-24T23:22:11.156Z,3.35
2023-01-24T23:24:37.952Z,2.70
2023-01-24T23:27:05.268Z,3.50
2023-01-24T23:29:45.870Z,4.03
2023-01-24T23:32:20.030Z,2.95
2023-01-24T23:34:51.651Z,3.15
2023-01-24T23:37:18.357Z,3.30
2023-01-24T23:39:45.036Z,3.15
2023-01-24T23:42:11.852Z,3.28
2023-01-24T23:44:38.559Z,3.67
2023-01-24T23:47:05.252Z,3.65
2023-01-24T23:49:31.946Z,2.72
2023-01-24T23:51:58.625Z,3.85
2023-01-24T23:54:25.371Z,3.10
2023-01-24T23:56:52.211Z,3.30
2023-01-24T23:59:19.008Z,3.65
